createdAt,value
2022-10-20T06:18:10.839Z,58.25
2022-10-20T06:20:37.666Z,58.78
2022-10-20T06:23:04.476Z,182.57
2022-10-20T06:25:31.296Z,95.20
2022-10-20T06:27:58.093Z,84.68
2022-10-20T06:30:24.866Z,63.47
2022-10-20T06:32:55.532Z,58.63
2022-10-20T06:35:22.336Z,64.82
2022-10-20T06:37:49.120Z,83.07
2022-10-20T06:40:16.090Z,75.05
2022-10-20T06:42:43.039Z,104.93
2022-10-20T06:45:12.234Z,103.28
2022-10-20T06:47:42.478Z,105.03
2022-10-20T06:50:09.538Z,164.85
2022-10-20T06:52:36.567Z,119.25
2022-10-20T06:55:03.673Z,106.60
2022-10-20T06:57:33.608Z,88.63
2022-10-20T07:00:00.465Z,84.10
2022-10-20T07:02:27.254Z,74.05
2022-10-20T07:04:54.104Z,65.25
2022-10-20T07:07:22.129Z,72.63
2022-10-20T07:09:48.959Z,113.10
2022-10-20T07:12:15.779Z,66.57
2022-10-20T07:14:42.633Z,117.00
2022-10-20T07:17:09.520Z,66.53
2022-10-20T07:19:36.376Z,81.43
2022-10-20T07:22:03.452Z,66.55
2022-10-20T07:24:30.316Z,81.70
2022-10-20T07:26:57.179Z,82.25
2022-10-20T07:29:24.100Z,58.17
2022-10-20T07:31:51.057Z,54.53
2022-10-20T07:34:25.574Z,59.47
2022-10-20T07:36:53.326Z,59.35
2022-10-20T07:39:20.393Z,43.78
2022-10-20T07:41:48.156Z,55.13
2022-10-20T07:44:16.047Z,42.88
2022-10-20T07:46:43.092Z,56.47
2022-10-20T07:51:56.848Z,38.80
2022-10-20T07:54:23.685Z,45.90
2022-10-20T07:56:50.504Z,37.67
2022-10-20T07:59:17.446Z,43.42
2022-10-20T08:01:44.563Z,43.78
2022-10-20T08:04:11.661Z,42.40
2022-10-20T08:06:39.446Z,37.42
2022-10-20T08:09:07.309Z,21.70
2022-10-20T08:11:35.347Z,20.58
2022-10-20T08:14:02.545Z,15.25
2022-10-20T08:16:32.640Z,16.95
2022-10-20T08:18:59.530Z,14.02
2022-10-20T08:21:26.306Z,17.08
2022-10-20T08:23:53.098Z,17.00
2022-10-20T08:26:22.325Z,29.65
2022-10-20T08:28:50.883Z,14.82
2022-10-20T08:31:18.088Z,17.27
2022-10-20T08:33:47.779Z,22.60
2022-10-20T08:36:18.389Z,16.60
2022-10-20T08:38:45.271Z,19.42
2022-10-20T08:41:34.459Z,18.48
2022-10-20T08:44:03.331Z,16.73
2022-10-20T08:46:36.343Z,19.30
2022-10-20T08:49:06.302Z,12.88
2022-10-20T08:51:39.616Z,17.83
2022-10-20T08:54:13.964Z,21.42
2022-10-20T08:56:44.567Z,17.25
2022-10-20T08:59:34.430Z,13.52
2022-10-20T09:02:02.480Z,22.90
2022-10-20T09:04:41.042Z,19.30
2022-10-20T09:07:38.714Z,15.40
2022-10-20T09:10:17.569Z,19.05
2022-10-20T09:12:47.412Z,19.80
2022-10-20T09:15:17.093Z,19.02
2022-10-20T09:17:51.848Z,16.40
2022-10-20T09:20:26.801Z,16.88
2022-10-20T09:22:53.683Z,17.08
2022-10-20T09:25:24.013Z,18.17
2022-10-20T09:27:51.791Z,18.98
2022-10-20T09:30:23.386Z,22.73
2022-10-20T09:32:50.450Z,19.60
2022-10-20T09:35:27.967Z,20.50
2022-10-20T09:38:10.184Z,14.00
2022-10-20T09:40:45.122Z,38.53
2022-10-20T09:43:17.131Z,20.15
2022-10-20T09:45:57.960Z,14.07
2022-10-20T09:48:26.818Z,15.90
2022-10-20T09:50:56.653Z,17.92
2022-10-20T09:53:28.658Z,17.60
2022-10-20T09:55:56.218Z,20.63
2022-10-20T09:58:32.513Z,19.05
2022-10-20T10:01:04.663Z,15.23
2022-10-20T10:03:46.303Z,19.63
2022-10-20T10:06:39.215Z,15.98
2022-10-20T10:12:19.536Z,17.13
2022-10-20T10:14:55.148Z,17.85
2022-10-20T10:17:35.753Z,17.70
2022-10-20T10:20:06.994Z,15.65
2022-10-20T10:22:36.837Z,14.82
2022-10-20T10:25:05.785Z,11.60
2022-10-20T10:27:35.547Z,13.13
2022-10-20T10:30:24.313Z,13.07
2022-10-20T10:32:51.256Z,21.15
2022-10-20T10:35:48.134Z,12.43
2022-10-20T10:38:15.119Z,23.83
2022-10-20T10:41:12.407Z,17.27
2022-10-20T10:44:15.552Z,17.92
2022-10-20T10:49:43.064Z,12.15
2022-10-20T10:52:20.285Z,12.45
2022-10-20T10:54:53.287Z,13.63
2022-10-20T10:58:02.405Z,15.20
2022-10-20T11:00:35.349Z,21.40
2022-10-20T11:03:24.446Z,17.80
2022-10-20T11:06:09.020Z,12.25
2022-10-20T11:08:49.371Z,13.68
2022-10-20T11:11:34.330Z,15.82
2022-10-20T11:14:49.285Z,13.30
2022-10-20T11:17:40.517Z,17.60
2022-10-20T11:20:18.910Z,11.63
2022-10-20T11:23:14.069Z,9.70
2022-10-20T11:25:46.695Z,15.18
2022-10-20T11:28:29.463Z,8.77
2022-10-20T11:33:29.000Z,18.15
2022-10-20T11:36:09.065Z,16.98
2022-10-20T11:38:45.326Z,18.20
2022-10-20T11:41:24.363Z,18.02
2022-10-20T11:44:14.410Z,17.17
2022-10-20T11:46:49.162Z,12.40
2022-10-20T11:49:16.318Z,13.50
2022-10-20T11:52:11.820Z,12.40
2022-10-20T11:54:54.395Z,20.58
2022-10-20T12:03:17.821Z,33.33
2022-10-20T12:06:07.560Z,15.40
2022-10-20T12:08:56.159Z,15.60
2022-10-20T12:11:33.722Z,20.15
2022-10-20T12:14:08.491Z,14.18
2022-10-20T12:16:58.298Z,16.98
2022-10-20T12:19:30.734Z,11.82
2022-10-20T12:24:39.889Z,10.55
2022-10-20T12:27:09.783Z,12.98
2022-10-20T12:29:36.498Z,13.65
2022-10-20T12:32:24.105Z,13.40
2022-10-20T12:34:56.273Z,25.92
2022-10-20T12:38:04.111Z,17.42
2022-10-20T12:40:51.725Z,14.05
2022-10-20T12:43:47.836Z,12.10
2022-10-20T12:46:21.230Z,13.82
2022-10-20T12:48:56.585Z,13.93
2022-10-20T12:51:38.249Z,17.92
2022-10-20T12:54:34.537Z,15.85
2022-10-20T12:57:22.748Z,12.95
2022-10-20T12:59:49.579Z,11.52
2022-10-20T13:02:25.285Z,17.67
2022-10-20T13:05:01.391Z,15.15
2022-10-20T13:07:46.570Z,12.00
2022-10-20T13:10:31.394Z,20.27
2022-10-20T13:13:04.054Z,13.18
2022-10-20T13:15:42.618Z,15.32
2022-10-20T13:18:12.613Z,10.73
2022-10-20T13:21:03.397Z,10.68
2022-10-20T13:23:37.012Z,16.25
2022-10-20T13:26:19.554Z,17.25
2022-10-20T13:31:42.901Z,11.05
2022-10-20T13:34:39.979Z,10.85
2022-10-20T13:37:28.743Z,11.07
2022-10-20T13:40:03.711Z,14.80
2022-10-20T13:43:01.205Z,10.90
2022-10-20T13:45:58.777Z,11.80
2022-10-20T13:48:31.820Z,12.95
2022-10-20T13:51:23.270Z,20.30
2022-10-20T13:53:53.532Z,10.75
2022-10-20T13:56:38.315Z,12.00
2022-10-20T13:59:14.464Z,13.30
2022-10-20T14:01:47.593Z,20.42
2022-10-20T14:04:28.263Z,17.02
2022-10-20T14:06:56.263Z,13.02
2022-10-20T14:09:25.477Z,17.45
2022-10-20T14:12:00.844Z,11.95
2022-10-20T14:14:29.417Z,9.40
2022-10-20T14:17:05.936Z,9.88
2022-10-20T14:19:33.741Z,12.52
2022-10-20T14:22:23.051Z,8.77
2022-10-20T14:24:53.483Z,11.57
2022-10-20T14:27:30.205Z,12.27
2022-10-20T14:29:59.473Z,10.13
2022-10-20T14:32:28.454Z,18.40
2022-10-20T14:34:59.347Z,15.30
2022-10-20T14:37:33.411Z,14.38
2022-10-20T14:40:06.802Z,20.33
2022-10-20T14:42:34.364Z,14.98
2022-10-20T14:45:03.360Z,14.32
2022-10-20T14:47:39.139Z,14.85
2022-10-20T14:50:06.969Z,22.08
2022-10-20T14:52:38.611Z,17.33
2022-10-20T14:55:27.380Z,20.33
2022-10-20T14:57:55.436Z,11.95
2022-10-20T15:00:32.051Z,14.65
2022-10-20T15:03:03.268Z,16.90
2022-10-20T15:05:33.180Z,17.90
2022-10-20T15:08:26.699Z,22.55
2022-10-20T15:10:53.992Z,16.55
2022-10-20T15:13:30.092Z,30.42
2022-10-20T15:15:59.507Z,31.77
2022-10-20T15:18:27.863Z,16.02
2022-10-20T15:20:57.771Z,18.50
2022-10-20T15:23:29.097Z,17.77
2022-10-20T15:26:02.771Z,26.45
2022-10-20T15:28:35.573Z,21.65
2022-10-20T15:31:05.350Z,13.68
2022-10-20T15:33:32.384Z,14.00
2022-10-20T15:36:01.493Z,15.13
2022-10-20T15:38:31.150Z,20.15
2022-10-20T15:43:32.916Z,21.13
2022-10-20T15:45:59.847Z,14.48
2022-10-20T15:48:27.024Z,26.02
2022-10-20T15:50:54.631Z,39.95
2022-10-20T15:53:21.489Z,16.75
2022-10-20T15:55:48.271Z,31.58
2022-10-20T15:58:15.165Z,22.35
2022-10-20T16:00:43.382Z,27.23
2022-10-20T16:03:17.704Z,42.67
2022-10-20T16:05:46.536Z,37.78
2022-10-20T16:10:45.200Z,16.33
2022-10-20T16:13:12.567Z,46.97
2022-10-20T16:15:39.405Z,24.30
2022-10-20T16:18:09.590Z,22.08
2022-10-20T16:20:36.964Z,15.07
2022-10-20T16:23:03.766Z,9.57
2022-10-20T16:25:30.692Z,19.65
2022-10-20T16:27:57.474Z,16.08
2022-10-20T16:30:24.292Z,18.05
2022-10-20T16:32:51.136Z,10.98
2022-10-20T16:35:18.129Z,22.05
2022-10-20T16:37:44.935Z,16.17
2022-10-20T16:40:11.811Z,40.15
2022-10-20T16:42:38.667Z,16.38
2022-10-20T16:45:06.272Z,22.02
2022-10-20T16:47:33.261Z,13.05
2022-10-20T16:50:00.143Z,12.98
2022-10-20T16:52:27.063Z,14.93
2022-10-20T16:54:53.900Z,13.77
2022-10-20T16:57:20.785Z,15.63
2022-10-20T16:59:50.569Z,24.92
2022-10-20T17:02:18.887Z,16.40
2022-10-20T17:04:49.827Z,28.70
2022-10-20T17:07:17.389Z,17.10
2022-10-20T17:09:44.223Z,16.75
2022-10-20T17:12:11.112Z,15.55
2022-10-20T17:14:38.413Z,72.53
2022-10-20T17:17:05.161Z,46.28
2022-10-20T17:19:32.045Z,31.15
2022-10-20T17:21:58.922Z,18.77
2022-10-20T17:24:25.799Z,25.20
2022-10-20T17:26:52.566Z,17.13
2022-10-20T17:29:23.740Z,19.60
2022-10-20T17:31:52.138Z,85.38
2022-10-20T17:34:19.002Z,26.45
2022-10-20T17:36:46.066Z,22.73
2022-10-20T17:39:15.864Z,40.53
2022-10-20T17:41:43.063Z,19.25
2022-10-20T17:44:10.244Z,14.75
2022-10-20T17:46:37.112Z,22.80
2022-10-20T17:49:04.423Z,14.93
2022-10-20T17:51:34.472Z,17.83
2022-10-20T17:54:02.558Z,15.05
2022-10-20T17:56:32.027Z,19.10
2022-10-20T17:59:00.624Z,25.35
2022-10-20T18:01:30.523Z,14.90
2022-10-20T18:04:03.704Z,21.17
2022-10-20T18:06:34.353Z,33.38
2022-10-20T18:09:06.861Z,15.18
2022-10-20T18:11:35.450Z,15.50
2022-10-20T18:14:02.876Z,25.15
2022-10-20T18:16:32.065Z,26.38
2022-10-20T18:18:59.948Z,19.35
2022-10-20T18:21:28.449Z,13.40
2022-10-20T18:23:56.674Z,19.13
2022-10-20T18:26:24.156Z,12.88
2022-10-20T18:28:51.683Z,22.08
2022-10-20T18:31:27.552Z,13.88
2022-10-20T18:34:17.134Z,21.52
2022-10-20T18:36:45.826Z,12.52
2022-10-20T18:39:13.748Z,16.42
2022-10-20T18:41:43.045Z,28.13
2022-10-20T18:44:15.662Z,28.45
2022-10-20T18:46:43.210Z,20.40
2022-10-20T18:49:12.909Z,17.58
2022-10-20T18:51:40.361Z,24.02
2022-10-20T18:54:08.511Z,14.52
2022-10-20T18:56:36.359Z,22.77
2022-10-20T18:59:08.532Z,15.68
2022-10-20T19:01:38.071Z,35.00
2022-10-20T19:04:06.468Z,33.20
2022-10-20T19:06:53.560Z,27.73
2022-10-20T19:09:21.440Z,23.20
2022-10-20T19:14:17.496Z,17.10
2022-10-20T19:16:46.939Z,18.75
2022-10-20T19:19:14.332Z,25.00
2022-10-20T19:21:41.365Z,21.65
2022-10-20T19:24:13.444Z,15.75
2022-10-20T19:26:43.704Z,17.67
2022-10-20T19:29:16.732Z,16.17
2022-10-20T19:31:50.981Z,19.48
2022-10-20T19:34:22.129Z,22.98
2022-10-20T19:36:49.558Z,19.55
2022-10-20T19:41:58.280Z,21.83
2022-10-20T19:44:26.917Z,27.17
2022-10-20T19:46:54.521Z,26.52
2022-10-20T19:49:23.453Z,22.25
2022-10-20T19:51:50.448Z,19.05
2022-10-20T19:54:17.919Z,22.33
2022-10-20T19:56:45.499Z,17.92
2022-10-20T19:59:12.532Z,24.05
2022-10-20T20:01:39.937Z,20.60
2022-10-20T20:04:07.469Z,15.27
2022-10-20T20:06:35.937Z,16.42
2022-10-20T20:09:07.480Z,16.83
2022-10-20T20:11:37.125Z,23.80
2022-10-20T20:14:07.218Z,17.63
2022-10-20T20:16:35.394Z,20.58
2022-10-20T20:19:03.400Z,14.70
2022-10-20T20:21:30.772Z,24.60
2022-10-20T20:24:01.172Z,15.77
2022-10-20T20:26:30.442Z,15.20
2022-10-20T20:28:57.958Z,27.63
2022-10-20T20:31:25.514Z,22.30
2022-10-20T20:33:52.817Z,17.70
2022-10-20T20:36:19.838Z,17.73
2022-10-20T20:38:46.779Z,17.05
2022-10-20T20:41:16.198Z,33.70
2022-10-20T20:43:46.433Z,24.73
2022-10-20T20:46:15.840Z,17.13
2022-10-20T20:48:43.289Z,19.05
2022-10-20T20:51:10.234Z,22.52
2022-10-20T20:53:37.990Z,28.88
